Kilrea, United Kingdom
Current Conditions -  °F | °C
As of 8:20 AM on Friday 19 Dec 2014 (Local Time) from EGAE Reporting Station
Rain Showers Rain Showers  
Wind Chill: 32°   Ceiling: 3500
Heat Index: 41°   Visibility: 6mi
Dew Point: 36°   Wind: 20mph
Humidity: 81%   Direction: 250°WSW
Pressure: 29.71"   Gusts: NA
Location:  54.95°N, 6.56°W
Report Text: EGAE 190820Z 25017KT 9999 VCSH FEW020 BKN035 05/02 Q1006
Loading
Personal Weather Stations






























Interactive Weather Map New forecast layout! Learn more

10-Day Weather Forecast

Advertisements
Track Severe Weather on mobile